Time,TemperatureF,DewpointF,PressureIn,WindDirection,WindDirectionDegrees,WindSpeedMPH,WindSpeedGustMPH,Humidity,HourlyPrecipIn,Conditions,Clouds,dailyrainin,SoftwareType,DateUTC
2013-01-11 00:14:00,63.4,62.0,29.83,West,259,4.0,8.0,95,0.00,,,0.52,weatherlink.com 1.10,2013-01-11 06:14:00,
2013-01-11 00:29:00,61.7,61.0,29.83,SSW,211,4.0,9.0,96,0.00,,,0.52,weatherlink.com 1.10,2013-01-11 06:29:00,
2013-01-11 00:44:00,62.0,61.0,29.83,West,265,6.0,12.0,97,0.00,,,0.52,weatherlink.com 1.10,2013-01-11 06:44:00,
2013-01-11 00:59:00,59.5,58.0,29.84,SW,214,3.0,11.0,95,0.00,,,0.52,weatherlink.com 1.10,2013-01-11 06:59:00,
2013-01-11 01:14:00,58.1,57.0,29.85,WSW,250,3.0,17.0,95,0.01,,,0.53,weatherlink.com 1.10,2013-01-11 07:14:00,
2013-01-11 01:29:00,57.3,56.0,29.85,WSW,244,7.0,11.0,96,0.01,,,0.00,weatherlink.com 1.10,2013-01-11 07:29:00,
2013-01-11 01:45:00,57.0,56.0,29.86,WSW,257,2.0,9.0,95,0.01,,,0.00,weatherlink.com 1.10,2013-01-11 07:45:00,
2013-01-11 02:00:00,56.8,55.0,29.86,WSW,240,3.0,8.0,95,0.01,,,0.00,weatherlink.com 1.10,2013-01-11 08:00:00,
2013-01-11 02:15:00,56.8,55.0,29.86,WSW,239,4.0,9.0,94,0.00,,,0.00,weatherlink.com 1.10,2013-01-11 08:15:00,
2013-01-11 02:30:00,56.7,55.0,29.87,West,260,7.0,7.0,94,0.01,,,0.01,weatherlink.com 1.10,2013-01-11 08:30:00,
2013-01-11 02:45:00,56.8,55.0,29.87,NW,315,1.0,10.0,94,0.01,,,0.01,weatherlink.com 1.10,2013-01-11 08:45:00,
2013-01-11 03:00:00,57.1,55.0,29.87,SW,236,1.0,7.0,94,0.01,,,0.01,weatherlink.com 1.10,2013-01-11 09:00:00,
2013-01-11 03:15:00,57.3,56.0,29.87,NNW,327,2.0,6.0,94,0.01,,,0.01,weatherlink.com 1.10,2013-01-11 09:15:00,
2013-01-11 03:30:00,57.5,56.0,29.87,SW,232,3.0,6.0,93,0.00,,,0.01,weatherlink.com 1.10,2013-01-11 09:30:00,
2013-01-11 03:45:00,57.7,56.0,29.88,WNW,285,1.0,10.0,93,0.00,,,0.01,weatherlink.com 1.10,2013-01-11 09:45:00,
2013-01-11 04:00:00,57.6,56.0,29.88,SW,226,2.0,8.0,93,0.00,,,0.01,weatherlink.com 1.10,2013-01-11 10:00:00,
2013-01-11 04:15:00,57.4,56.0,29.89,WSW,238,4.0,9.0,94,0.00,,,0.01,weatherlink.com 1.10,2013-01-11 10:15:00,
2013-01-11 04:30:00,57.5,56.0,29.89,SW,220,1.0,12.0,94,0.01,,,0.02,weatherlink.com 1.10,2013-01-11 10:30:00,
2013-01-11 04:45:00,57.5,56.0,29.89,SW,228,2.0,9.0,93,0.01,,,0.02,weatherlink.com 1.10,2013-01-11 10:45:00,
2013-01-11 05:00:00,57.1,55.0,29.88,SW,219,4.0,7.0,93,0.01,,,0.02,weatherlink.com 1.10,2013-01-11 11:00:00,
2013-01-11 05:15:00,56.9,55.0,29.88,WSW,252,2.0,8.0,93,0.01,,,0.02,weatherlink.com 1.10,2013-01-11 11:15:00,
2013-01-11 05:30:00,56.6,55.0,29.90,SW,225,6.0,8.0,93,0.00,,,0.02,weatherlink.com 1.10,2013-01-11 11:30:00,
2013-01-11 05:45:00,56.3,55.0,29.90,SSW,208,0.0,6.0,94,0.00,,,0.02,weatherlink.com 1.10,2013-01-11 11:45:00,
2013-01-11 06:00:00,55.8,54.0,29.89,SSW,212,1.0,6.0,94,0.01,,,0.03,weatherlink.com 1.10,2013-01-11 12:00:00,
2013-01-11 06:15:00,55.7,54.0,29.90,WSW,238,3.0,5.0,94,0.01,,,0.03,weatherlink.com 1.10,2013-01-11 12:15:00,
2013-01-11 06:30:00,55.3,54.0,29.91,South,190,3.0,7.0,94,0.01,,,0.03,weatherlink.com 1.10,2013-01-11 12:30:00,
2013-01-11 06:45:00,55.1,54.0,29.92,SW,215,0.0,5.0,94,0.01,,,0.03,weatherlink.com 1.10,2013-01-11 12:45:00,
2013-01-11 07:00:00,55.1,54.0,29.92,South,190,5.0,5.0,95,0.00,,,0.03,weatherlink.com 1.10,2013-01-11 13:00:00,
2013-01-11 07:15:00,55.2,54.0,29.92,SSW,203,0.0,9.0,94,0.00,,,0.03,weatherlink.com 1.10,2013-01-11 13:15:00,
2013-01-11 07:30:00,55.4,54.0,29.92,SSW,194,1.0,7.0,94,0.00,,,0.03,weatherlink.com 1.10,2013-01-11 13:30:00,
2013-01-11 07:45:00,55.4,54.0,29.93,SSW,197,4.0,6.0,93,0.00,,,0.03,weatherlink.com 1.10,2013-01-11 13:45:00,
2013-01-11 08:00:00,55.6,53.0,29.93,SW,232,2.0,6.0,92,0.01,,,0.04,weatherlink.com 1.10,2013-01-11 14:00:00,
2013-01-11 08:15:00,56.2,54.0,29.94,SW,215,4.0,8.0,91,0.01,,,0.04,weatherlink.com 1.10,2013-01-11 14:15:00,
2013-01-11 08:30:00,57.4,55.0,29.95,WSW,254,4.0,12.0,90,0.01,,,0.04,weatherlink.com 1.10,2013-01-11 14:30:00,
2013-01-11 08:45:00,57.8,54.0,29.95,SSW,195,6.0,12.0,87,0.01,,,0.04,weatherlink.com 1.10,2013-01-11 14:45:00,
2013-01-11 09:00:00,58.0,54.0,29.95,SW,227,4.0,12.0,86,0.00,,,0.04,weatherlink.com 1.10,2013-01-11 15:00:00,
2013-01-11 09:15:00,58.3,54.0,29.95,SW,230,4.0,12.0,84,0.00,,,0.04,weatherlink.com 1.10,2013-01-11 15:15:00,
2013-01-11 09:30:00,57.6,54.0,29.95,WSW,238,5.0,7.0,86,0.00,,,0.04,weatherlink.com 1.10,2013-01-11 15:30:00,
2013-01-11 09:45:00,58.7,54.0,29.95,WSW,250,3.0,11.0,83,0.01,,,0.05,weatherlink.com 1.10,2013-01-11 15:45:00,
2013-01-11 10:00:00,60.4,54.0,29.96,SW,216,4.0,10.0,80,0.01,,,0.05,weatherlink.com 1.10,2013-01-11 16:00:00,
2013-01-11 10:16:00,60.8,54.0,29.96,South,183,6.0,14.0,79,0.01,,,0.05,weatherlink.com 1.10,2013-01-11 16:16:00,
2013-01-11 10:31:00,61.3,54.0,29.95,SW,232,7.0,12.0,78,0.01,,,0.05,weatherlink.com 1.10,2013-01-11 16:31:00,
2013-01-11 10:46:00,61.3,54.0,29.93,SSW,194,7.0,13.0,78,0.00,,,0.05,weatherlink.com 1.10,2013-01-11 16:46:00,
2013-01-11 11:01:00,61.5,54.0,29.93,SSE,168,6.0,14.0,77,0.00,,,0.05,weatherlink.com 1.10,2013-01-11 17:01:00,
2013-01-11 11:16:00,62.1,54.0,29.93,SW,222,1.0,14.0,75,0.01,,,0.06,weatherlink.com 1.10,2013-01-11 17:16:00,
2013-01-11 11:31:00,62.9,55.0,29.91,SSW,206,7.0,9.0,74,0.01,,,0.06,weatherlink.com 1.10,2013-01-11 17:31:00,
2013-01-11 11:46:00,62.8,54.0,29.91,SW,218,11.0,12.0,72,0.01,,,0.06,weatherlink.com 1.10,2013-01-11 17:46:00,
2013-01-11 12:01:00,63.4,53.0,29.91,WSW,241,6.0,12.0,70,0.01,,,0.06,weatherlink.com 1.10,2013-01-11 18:01:00,
2013-01-11 12:16:00,63.4,53.0,29.90,SSW,205,7.0,14.0,69,0.00,,,0.06,weatherlink.com 1.10,2013-01-11 18:16:00,
2013-01-11 12:31:00,64.3,53.0,29.90,West,260,6.0,15.0,67,0.00,,,0.06,weatherlink.com 1.10,2013-01-11 18:31:00,
2013-01-11 12:46:00,64.3,53.0,29.89,SW,218,7.0,14.0,67,0.00,,,0.06,weatherlink.com 1.10,2013-01-11 18:46:00,
2013-01-11 13:01:00,65.0,52.0,29.89,WSW,243,11.0,15.0,64,0.01,,,0.07,weatherlink.com 1.10,2013-01-11 19:01:00,
2013-01-11 13:16:00,65.5,53.0,29.89,SW,228,5.0,12.0,65,0.01,,,0.07,weatherlink.com 1.10,2013-01-11 19:16:00,
2013-01-11 13:31:00,65.3,52.0,29.90,SSW,193,8.0,17.0,62,0.01,,,0.07,weatherlink.com 1.10,2013-01-11 19:31:00,
2013-01-11 13:46:00,64.9,52.0,29.89,South,185,4.0,15.0,63,0.01,,,0.07,weatherlink.com 1.10,2013-01-11 19:46:00,
2013-01-11 14:01:00,64.9,51.0,29.89,South,178,8.0,11.0,62,0.00,,,0.07,weatherlink.com 1.10,2013-01-11 20:01:00,
2013-01-11 14:16:00,65.0,52.0,29.89,West,273,8.0,16.0,62,0.00,,,0.07,weatherlink.com 1.10,2013-01-11 20:16:00,
2013-01-11 14:31:00,65.1,52.0,29.89,SSE,160,5.0,13.0,63,0.00,,,0.07,weatherlink.com 1.10,2013-01-11 20:31:00,
2013-01-11 14:46:00,65.4,51.0,29.89,WSW,245,6.0,13.0,61,0.01,,,0.08,weatherlink.com 1.10,2013-01-11 20:46:00,
2013-01-11 15:01:00,65.2,52.0,29.89,SSE,151,4.0,14.0,62,0.01,,,0.08,weatherlink.com 1.10,2013-01-11 21:01:00,
2013-01-11 15:16:00,64.2,51.0,29.90,SSW,200,4.0,9.0,63,0.01,,,0.08,weatherlink.com 1.10,2013-01-11 21:16:00,
2013-01-11 15:31:00,64.0,51.0,29.90,SW,231,3.0,10.0,63,0.01,,,0.08,weatherlink.com 1.10,2013-01-11 21:31:00,
2013-01-11 15:46:00,63.9,51.0,29.89,SW,216,2.0,8.0,64,0.00,,,0.08,weatherlink.com 1.10,2013-01-11 21:46:00,
2013-01-11 16:01:00,64.1,52.0,29.89,SW,227,4.0,7.0,64,0.00,,,0.08,weatherlink.com 1.10,2013-01-11 22:01:00,
2013-01-11 16:16:00,64.0,52.0,29.89,SSE,165,3.0,8.0,65,0.00,,,0.08,weatherlink.com 1.10,2013-01-11 22:16:00,
2013-01-11 16:31:00,63.4,51.0,29.88,SSW,193,4.0,11.0,65,0.00,,,0.08,weatherlink.com 1.10,2013-01-11 22:31:00,
2013-01-11 16:46:00,62.5,51.0,29.88,South,173,4.0,6.0,67,0.01,,,0.09,weatherlink.com 1.10,2013-01-11 22:46:00,
2013-01-11 17:01:00,61.5,51.0,29.88,SSW,192,4.0,5.0,69,0.01,,,0.09,weatherlink.com 1.10,2013-01-11 23:01:00,
2013-01-11 17:16:00,61.1,51.0,29.88,South,188,1.0,4.0,70,0.01,,,0.09,weatherlink.com 1.10,2013-01-11 23:16:00,
2013-01-11 17:31:00,60.1,51.0,29.88,South,182,1.0,4.0,71,0.01,,,0.09,weatherlink.com 1.10,2013-01-11 23:31:00,
2013-01-11 17:46:00,58.3,50.0,29.88,SSE,168,0.0,2.0,75,0.00,,,0.09,weatherlink.com 1.10,2013-01-11 23:46:00,
2013-01-11 18:01:00,56.6,50.0,29.88,SSE,168,0.0,0.0,78,0.00,,,0.09,weatherlink.com 1.10,2013-01-12 00:01:00,
2013-01-11 18:16:00,54.7,49.0,29.88,SSE,168,0.0,0.0,81,0.00,,,0.09,weatherlink.com 1.10,2013-01-12 00:16:00,
2013-01-11 18:31:00,53.6,49.0,29.88,SSE,168,0.0,0.0,84,0.00,,,0.09,weatherlink.com 1.10,2013-01-12 00:31:00,
2013-01-11 18:46:00,52.4,48.0,29.88,SSE,168,0.0,1.0,86,0.00,,,0.09,weatherlink.com 1.10,2013-01-12 00:46:00,
2013-01-11 19:01:00,53.8,50.0,29.88,South,173,0.0,2.0,86,0.00,,,0.09,weatherlink.com 1.10,2013-01-12 01:01:00,
2013-01-11 19:16:00,56.0,50.0,29.89,SSW,193,0.0,4.0,81,0.00,,,0.09,weatherlink.com 1.10,2013-01-12 01:16:00,
2013-01-11 19:31:00,56.1,50.0,29.88,SSW,193,0.0,2.0,81,0.01,,,0.10,weatherlink.com 1.10,2013-01-12 01:31:00,
2013-01-11 19:46:00,55.4,50.0,29.89,SSW,193,0.0,1.0,83,0.01,,,0.10,weatherlink.com 1.10,2013-01-12 01:46:00,
2013-01-11 20:01:00,56.4,51.0,29.89,SE,133,0.0,2.0,82,0.01,,,0.10,weatherlink.com 1.10,2013-01-12 02:01:00,
2013-01-11 20:16:00,56.0,51.0,29.89,SE,133,0.0,1.0,83,0.01,,,0.10,weatherlink.com 1.10,2013-01-12 02:16:00,
2013-01-11 20:31:00,56.1,51.0,29.89,SW,234,2.0,4.0,84,0.00,,,0.10,weatherlink.com 1.10,2013-01-12 02:31:00,
2013-01-11 20:46:00,57.2,52.0,29.89,SW,217,2.0,4.0,84,0.00,,,0.10,weatherlink.com 1.10,2013-01-12 02:46:00,
2013-01-11 21:01:00,57.7,53.0,29.89,South,185,2.0,6.0,85,0.00,,,0.10,weatherlink.com 1.10,2013-01-12 03:01:00,
2013-01-11 21:16:00,58.3,54.0,29.88,South,180,1.0,7.0,86,0.00,,,0.10,weatherlink.com 1.10,2013-01-12 03:16:00,
2013-01-11 21:31:00,58.5,55.0,29.89,SSE,163,3.0,6.0,87,0.00,,,0.10,weatherlink.com 1.10,2013-01-12 03:31:00,
2013-01-11 21:46:00,58.3,55.0,29.88,SW,214,1.0,5.0,89,0.00,,,0.10,weatherlink.com 1.10,2013-01-12 03:46:00,
2013-01-11 22:01:00,58.5,56.0,29.89,SSW,209,2.0,5.0,90,0.00,,,0.10,weatherlink.com 1.10,2013-01-12 04:01:00,
2013-01-11 22:16:00,58.4,56.0,29.89,South,172,0.0,4.0,91,0.00,,,0.10,weatherlink.com 1.10,2013-01-12 04:16:00,
2013-01-11 22:31:00,57.7,55.0,29.88,SSE,157,2.0,5.0,92,0.00,,,0.10,weatherlink.com 1.10,2013-01-12 04:31:00,
2013-01-11 22:46:00,57.8,56.0,29.88,SSE,157,1.0,6.0,93,0.00,,,0.10,weatherlink.com 1.10,2013-01-12 04:46:00,
2013-01-11 23:16:00,58.6,57.0,29.88,South,175,3.0,9.0,93,0.01,,,0.11,weatherlink.com 1.10,2013-01-12 05:16:00,
2013-01-11 23:31:00,58.9,57.0,29.88,South,184,3.0,12.0,93,0.01,,,0.11,weatherlink.com 1.10,2013-01-12 05:31:00,
2013-01-11 23:46:00,59.1,57.0,29.88,South,186,3.0,11.0,94,0.00,,,0.11,weatherlink.com 1.10,2013-01-12 05:46:00,